sensor_id;sensor_type;location;lat;lon;timestamp;P1;durP1;ratioP1;P2;durP2;ratioP2
46411;SDS011;32113;42.012;24.870;2023-09-18T00:01:47;10.15;;;4.15;;
46411;SDS011;32113;42.012;24.870;2023-09-18T00:04:12;9.43;;;4.22;;
46411;SDS011;32113;42.012;24.870;2023-09-18T00:06:38;7.88;;;3.70;;
46411;SDS011;32113;42.012;24.870;2023-09-18T00:09:03;9.95;;;4.72;;
46411;SDS011;32113;42.012;24.870;2023-09-18T00:11:28;5.18;;;3.30;;
46411;SDS011;32113;42.012;24.870;2023-09-18T00:13:54;8.50;;;3.63;;
46411;SDS011;32113;42.012;24.870;2023-09-18T00:16:19;8.32;;;3.78;;
46411;SDS011;32113;42.012;24.870;2023-09-18T00:18:44;6.85;;;3.92;;
46411;SDS011;32113;42.012;24.870;2023-09-18T00:21:10;11.13;;;4.15;;
46411;SDS011;32113;42.012;24.870;2023-09-18T00:23:36;8.35;;;3.70;;
46411;SDS011;32113;42.012;24.870;2023-09-18T00:26:02;8.35;;;3.80;;
46411;SDS011;32113;42.012;24.870;2023-09-18T00:28:28;8.10;;;4.20;;
46411;SDS011;32113;42.012;24.870;2023-09-18T00:30:53;8.10;;;4.35;;
46411;SDS011;32113;42.012;24.870;2023-09-18T00:33:19;7.47;;;3.95;;
46411;SDS011;32113;42.012;24.870;2023-09-18T00:35:48;6.25;;;4.05;;
46411;SDS011;32113;42.012;24.870;2023-09-18T00:38:15;6.68;;;3.88;;
46411;SDS011;32113;42.012;24.870;2023-09-18T00:40:41;6.72;;;3.65;;
46411;SDS011;32113;42.012;24.870;2023-09-18T00:43:07;6.88;;;4.22;;
46411;SDS011;32113;42.012;24.870;2023-09-18T00:45:34;9.73;;;3.88;;
46411;SDS011;32113;42.012;24.870;2023-09-18T00:48:04;8.27;;;4.07;;
46411;SDS011;32113;42.012;24.870;2023-09-18T00:50:30;6.90;;;3.42;;
46411;SDS011;32113;42.012;24.870;2023-09-18T00:52:56;11.73;;;4.25;;
46411;SDS011;32113;42.012;24.870;2023-09-18T00:55:23;7.57;;;4.15;;
46411;SDS011;32113;42.012;24.870;2023-09-18T00:57:48;9.73;;;4.10;;
46411;SDS011;32113;42.012;24.870;2023-09-18T01:00:14;8.40;;;3.80;;
46411;SDS011;32113;42.012;24.870;2023-09-18T01:02:43;6.70;;;3.70;;
46411;SDS011;32113;42.012;24.870;2023-09-18T01:05:10;10.98;;;4.38;;
46411;SDS011;32113;42.012;24.870;2023-09-18T01:07:35;6.85;;;4.13;;
46411;SDS011;32113;42.012;24.870;2023-09-18T01:10:01;10.60;;;4.13;;
46411;SDS011;32113;42.012;24.870;2023-09-18T01:12:35;8.88;;;5.00;;
46411;SDS011;32113;42.012;24.870;2023-09-18T01:15:11;8.70;;;3.80;;
46411;SDS011;32113;42.012;24.870;2023-09-18T01:17:39;10.73;;;3.90;;
46411;SDS011;32113;42.012;24.870;2023-09-18T01:20:08;11.48;;;3.83;;
46411;SDS011;32113;42.012;24.870;2023-09-18T01:22:34;12.48;;;4.68;;
46411;SDS011;32113;42.012;24.870;2023-09-18T01:25:00;7.55;;;3.80;;
46411;SDS011;32113;42.012;24.870;2023-09-18T01:27:26;8.30;;;3.97;;
46411;SDS011;32113;42.012;24.870;2023-09-18T01:29:51;10.63;;;4.88;;
46411;SDS011;32113;42.012;24.870;2023-09-18T01:32:18;9.03;;;4.00;;
46411;SDS011;32113;42.012;24.870;2023-09-18T01:34:47;6.68;;;4.00;;
46411;SDS011;32113;42.012;24.870;2023-09-18T01:37:16;7.90;;;4.28;;
46411;SDS011;32113;42.012;24.870;2023-09-18T01:39:45;8.88;;;4.50;;
46411;SDS011;32113;42.012;24.870;2023-09-18T01:42:12;8.93;;;4.28;;
46411;SDS011;32113;42.012;24.870;2023-09-18T01:44:38;7.32;;;4.25;;
46411;SDS011;32113;42.012;24.870;2023-09-18T01:47:04;7.85;;;4.63;;
46411;SDS011;32113;42.012;24.870;2023-09-18T01:49:32;8.07;;;4.45;;
46411;SDS011;32113;42.012;24.870;2023-09-18T01:51:59;9.00;;;4.28;;
46411;SDS011;32113;42.012;24.870;2023-09-18T01:54:25;9.00;;;4.20;;
46411;SDS011;32113;42.012;24.870;2023-09-18T01:56:51;7.95;;;4.28;;
46411;SDS011;32113;42.012;24.870;2023-09-18T01:59:18;9.07;;;4.33;;
46411;SDS011;32113;42.012;24.870;2023-09-18T02:01:44;8.10;;;4.23;;
46411;SDS011;32113;42.012;24.870;2023-09-18T02:04:10;9.35;;;5.20;;
46411;SDS011;32113;42.012;24.870;2023-09-18T02:06:36;12.45;;;5.00;;
46411;SDS011;32113;42.012;24.870;2023-09-18T02:09:01;9.30;;;4.47;;
46411;SDS011;32113;42.012;24.870;2023-09-18T02:11:28;8.68;;;4.50;;
46411;SDS011;32113;42.012;24.870;2023-09-18T02:13:54;9.77;;;4.68;;
46411;SDS011;32113;42.012;24.870;2023-09-18T02:16:19;7.05;;;4.43;;
46411;SDS011;32113;42.012;24.870;2023-09-18T02:18:47;11.68;;;4.10;;
46411;SDS011;32113;42.012;24.870;2023-09-18T02:21:19;7.63;;;3.90;;
46411;SDS011;32113;42.012;24.870;2023-09-18T02:23:45;9.32;;;3.92;;
46411;SDS011;32113;42.012;24.870;2023-09-18T02:26:10;9.02;;;4.50;;
46411;SDS011;32113;42.012;24.870;2023-09-18T02:28:36;10.52;;;4.65;;
46411;SDS011;32113;42.012;24.870;2023-09-18T02:31:01;7.90;;;4.00;;
46411;SDS011;32113;42.012;24.870;2023-09-18T02:33:27;13.40;;;4.40;;
46411;SDS011;32113;42.012;24.870;2023-09-18T02:35:53;8.82;;;4.45;;
46411;SDS011;32113;42.012;24.870;2023-09-18T02:38:18;8.57;;;4.50;;
46411;SDS011;32113;42.012;24.870;2023-09-18T02:40:44;10.23;;;4.72;;
46411;SDS011;32113;42.012;24.870;2023-09-18T02:43:09;9.85;;;4.82;;
46411;SDS011;32113;42.012;24.870;2023-09-18T02:45:34;10.95;;;4.15;;
46411;SDS011;32113;42.012;24.870;2023-09-18T02:48:00;8.50;;;5.15;;
46411;SDS011;32113;42.012;24.870;2023-09-18T02:50:25;9.95;;;4.82;;
46411;SDS011;32113;42.012;24.870;2023-09-18T02:52:51;11.73;;;4.57;;
46411;SDS011;32113;42.012;24.870;2023-09-18T02:55:16;7.65;;;4.78;;
46411;SDS011;32113;42.012;24.870;2023-09-18T02:57:42;8.32;;;4.88;;
46411;SDS011;32113;42.012;24.870;2023-09-18T03:00:07;10.25;;;4.40;;
46411;SDS011;32113;42.012;24.870;2023-09-18T03:02:34;19.95;;;5.70;;
46411;SDS011;32113;42.012;24.870;2023-09-18T03:05:00;12.52;;;4.70;;
46411;SDS011;32113;42.012;24.870;2023-09-18T03:07:26;10.07;;;4.55;;
46411;SDS011;32113;42.012;24.870;2023-09-18T03:09:54;7.68;;;4.65;;
46411;SDS011;32113;42.012;24.870;2023-09-18T03:12:20;11.57;;;4.70;;
46411;SDS011;32113;42.012;24.870;2023-09-18T03:14:47;11.77;;;4.95;;
46411;SDS011;32113;42.012;24.870;2023-09-18T03:17:13;9.15;;;4.80;;
46411;SDS011;32113;42.012;24.870;2023-09-18T03:19:38;5.63;;;3.83;;
46411;SDS011;32113;42.012;24.870;2023-09-18T03:22:03;10.27;;;4.53;;
46411;SDS011;32113;42.012;24.870;2023-09-18T03:24:29;8.93;;;4.68;;
46411;SDS011;32113;42.012;24.870;2023-09-18T03:26:55;7.47;;;4.28;;
46411;SDS011;32113;42.012;24.870;2023-09-18T03:29:20;11.05;;;4.97;;
46411;SDS011;32113;42.012;24.870;2023-09-18T03:31:46;7.75;;;4.47;;
46411;SDS011;32113;42.012;24.870;2023-09-18T03:34:11;13.95;;;4.43;;
46411;SDS011;32113;42.012;24.870;2023-09-18T03:36:36;11.23;;;5.18;;
46411;SDS011;32113;42.012;24.870;2023-09-18T03:39:04;10.85;;;4.40;;
46411;SDS011;32113;42.012;24.870;2023-09-18T03:41:30;7.82;;;3.95;;
46411;SDS011;32113;42.012;24.870;2023-09-18T03:43:59;12.88;;;3.83;;
46411;SDS011;32113;42.012;24.870;2023-09-18T03:46:25;11.32;;;3.80;;
46411;SDS011;32113;42.012;24.870;2023-09-18T03:48:51;13.75;;;4.35;;
46411;SDS011;32113;42.012;24.870;2023-09-18T03:51:16;8.43;;;3.78;;
46411;SDS011;32113;42.012;24.870;2023-09-18T03:53:43;8.07;;;3.90;;
46411;SDS011;32113;42.012;24.870;2023-09-18T03:56:09;8.73;;;4.00;;
46411;SDS011;32113;42.012;24.870;2023-09-18T03:58:34;8.93;;;4.07;;
46411;SDS011;32113;42.012;24.870;2023-09-18T04:01:00;7.75;;;3.92;;
46411;SDS011;32113;42.012;24.870;2023-09-18T04:03:26;10.40;;;3.58;;
46411;SDS011;32113;42.012;24.870;2023-09-18T04:05:51;12.23;;;4.55;;
46411;SDS011;32113;42.012;24.870;2023-09-18T04:08:17;7.75;;;3.47;;
46411;SDS011;32113;42.012;24.870;2023-09-18T04:10:42;8.65;;;4.43;;
46411;SDS011;32113;42.012;24.870;2023-09-18T04:13:08;11.63;;;4.65;;
46411;SDS011;32113;42.012;24.870;2023-09-18T04:15:34;11.52;;;4.93;;
46411;SDS011;32113;42.012;24.870;2023-09-18T04:18:03;10.38;;;4.25;;
46411;SDS011;32113;42.012;24.870;2023-09-18T04:20:30;9.35;;;4.25;;
46411;SDS011;32113;42.012;24.870;2023-09-18T04:25:46;9.65;;;4.28;;
46411;SDS011;32113;42.012;24.870;2023-09-18T04:28:13;11.90;;;4.43;;
46411;SDS011;32113;42.012;24.870;2023-09-18T04:30:39;14.13;;;4.75;;
46411;SDS011;32113;42.012;24.870;2023-09-18T04:33:05;11.73;;;4.82;;
46411;SDS011;32113;42.012;24.870;2023-09-18T04:35:31;12.63;;;5.50;;
46411;SDS011;32113;42.012;24.870;2023-09-18T04:37:58;15.05;;;6.25;;
46411;SDS011;32113;42.012;24.870;2023-09-18T04:40:24;13.48;;;6.00;;
46411;SDS011;32113;42.012;24.870;2023-09-18T04:42:51;12.40;;;4.82;;
46411;SDS011;32113;42.012;24.870;2023-09-18T04:45:17;15.18;;;4.88;;
46411;SDS011;32113;42.012;24.870;2023-09-18T04:47:43;14.13;;;4.68;;
46411;SDS011;32113;42.012;24.870;2023-09-18T04:50:08;10.60;;;4.55;;
46411;SDS011;32113;42.012;24.870;2023-09-18T04:52:35;10.57;;;4.30;;
46411;SDS011;32113;42.012;24.870;2023-09-18T04:55:04;11.32;;;4.70;;
46411;SDS011;32113;42.012;24.870;2023-09-18T04:57:31;10.70;;;4.38;;
46411;SDS011;32113;42.012;24.870;2023-09-18T04:59:56;10.98;;;4.82;;
46411;SDS011;32113;42.012;24.870;2023-09-18T05:02:22;12.57;;;4.97;;
46411;SDS011;32113;42.012;24.870;2023-09-18T05:04:47;12.50;;;5.55;;
46411;SDS011;32113;42.012;24.870;2023-09-18T05:07:13;11.70;;;4.95;;
46411;SDS011;32113;42.012;24.870;2023-09-18T05:09:39;14.75;;;4.70;;
46411;SDS011;32113;42.012;24.870;2023-09-18T05:12:05;10.38;;;4.65;;
46411;SDS011;32113;42.012;24.870;2023-09-18T05:14:33;11.45;;;4.65;;
46411;SDS011;32113;42.012;24.870;2023-09-18T05:16:59;15.52;;;5.30;;
46411;SDS011;32113;42.012;24.870;2023-09-18T05:19:25;12.93;;;4.82;;
46411;SDS011;32113;42.012;24.870;2023-09-18T05:21:50;9.93;;;5.32;;
46411;SDS011;32113;42.012;24.870;2023-09-18T05:24:16;15.07;;;5.75;;
46411;SDS011;32113;42.012;24.870;2023-09-18T05:26:41;14.25;;;5.93;;
46411;SDS011;32113;42.012;24.870;2023-09-18T05:29:07;12.10;;;4.88;;
46411;SDS011;32113;42.012;24.870;2023-09-18T05:31:32;14.07;;;5.75;;
46411;SDS011;32113;42.012;24.870;2023-09-18T05:33:58;10.90;;;5.00;;
46411;SDS011;32113;42.012;24.870;2023-09-18T05:36:23;12.38;;;4.88;;
46411;SDS011;32113;42.012;24.870;2023-09-18T05:38:49;13.27;;;4.90;;
46411;SDS011;32113;42.012;24.870;2023-09-18T05:41:14;14.65;;;5.25;;
46411;SDS011;32113;42.012;24.870;2023-09-18T05:43:40;9.57;;;4.38;;
46411;SDS011;32113;42.012;24.870;2023-09-18T05:46:05;10.15;;;4.35;;
46411;SDS011;32113;42.012;24.870;2023-09-18T05:48:31;12.57;;;4.38;;
46411;SDS011;32113;42.012;24.870;2023-09-18T05:50:56;11.07;;;5.30;;
46411;SDS011;32113;42.012;24.870;2023-09-18T05:53:22;9.35;;;4.80;;
46411;SDS011;32113;42.012;24.870;2023-09-18T05:55:47;8.73;;;4.00;;
46411;SDS011;32113;42.012;24.870;2023-09-18T05:58:13;12.55;;;4.07;;
46411;SDS011;32113;42.012;24.870;2023-09-18T06:00:39;11.00;;;4.60;;
46411;SDS011;32113;42.012;24.870;2023-09-18T06:03:05;12.80;;;3.88;;
46411;SDS011;32113;42.012;24.870;2023-09-18T06:05:31;11.65;;;4.28;;
46411;SDS011;32113;42.012;24.870;2023-09-18T06:10:24;9.40;;;3.80;;
46411;SDS011;32113;42.012;24.870;2023-09-18T06:12:49;10.50;;;4.20;;
46411;SDS011;32113;42.012;24.870;2023-09-18T06:15:15;14.50;;;4.25;;
46411;SDS011;32113;42.012;24.870;2023-09-18T06:17:41;18.33;;;4.28;;
46411;SDS011;32113;42.012;24.870;2023-09-18T06:20:08;13.15;;;5.10;;
46411;SDS011;32113;42.012;24.870;2023-09-18T06:22:43;18.85;;;4.97;;
46411;SDS011;32113;42.012;24.870;2023-09-18T06:25:08;8.65;;;5.43;;
46411;SDS011;32113;42.012;24.870;2023-09-18T06:27:35;16.15;;;5.97;;
46411;SDS011;32113;42.012;24.870;2023-09-18T06:30:01;12.95;;;5.70;;
46411;SDS011;32113;42.012;24.870;2023-09-18T06:32:28;20.05;;;5.32;;
46411;SDS011;32113;42.012;24.870;2023-09-18T06:34:53;10.32;;;5.10;;
46411;SDS011;32113;42.012;24.870;2023-09-18T06:37:19;10.10;;;4.03;;
46411;SDS011;32113;42.012;24.870;2023-09-18T06:39:45;10.93;;;4.22;;
46411;SDS011;32113;42.012;24.870;2023-09-18T06:42:10;13.82;;;4.88;;
46411;SDS011;32113;42.012;24.870;2023-09-18T06:44:36;9.98;;;4.43;;
46411;SDS011;32113;42.012;24.870;2023-09-18T06:47:02;8.75;;;3.92;;
46411;SDS011;32113;42.012;24.870;2023-09-18T06:49:28;8.50;;;3.67;;
46411;SDS011;32113;42.012;24.870;2023-09-18T06:51:53;8.73;;;4.13;;
46411;SDS011;32113;42.012;24.870;2023-09-18T06:54:19;8.85;;;3.60;;
46411;SDS011;32113;42.012;24.870;2023-09-18T06:56:44;8.25;;;4.03;;
46411;SDS011;32113;42.012;24.870;2023-09-18T06:59:10;6.70;;;3.17;;
46411;SDS011;32113;42.012;24.870;2023-09-18T07:01:37;6.10;;;2.67;;
46411;SDS011;32113;42.012;24.870;2023-09-18T07:04:02;8.25;;;3.47;;
46411;SDS011;32113;42.012;24.870;2023-09-18T07:06:29;10.55;;;4.00;;
46411;SDS011;32113;42.012;24.870;2023-09-18T07:08:55;7.80;;;3.78;;
46411;SDS011;32113;42.012;24.870;2023-09-18T07:11:21;10.13;;;3.67;;
46411;SDS011;32113;42.012;24.870;2023-09-18T07:13:46;8.77;;;3.63;;
46411;SDS011;32113;42.012;24.870;2023-09-18T07:16:12;9.52;;;3.30;;
46411;SDS011;32113;42.012;24.870;2023-09-18T07:18:38;7.07;;;2.70;;
46411;SDS011;32113;42.012;24.870;2023-09-18T07:21:03;8.40;;;3.13;;
46411;SDS011;32113;42.012;24.870;2023-09-18T07:23:29;7.57;;;3.05;;
46411;SDS011;32113;42.012;24.870;2023-09-18T07:25:54;7.93;;;3.53;;
46411;SDS011;32113;42.012;24.870;2023-09-18T07:28:20;6.57;;;2.65;;
46411;SDS011;32113;42.012;24.870;2023-09-18T07:30:45;8.63;;;3.20;;
46411;SDS011;32113;42.012;24.870;2023-09-18T07:33:12;6.87;;;3.43;;
46411;SDS011;32113;42.012;24.870;2023-09-18T07:35:41;11.35;;;3.28;;
46411;SDS011;32113;42.012;24.870;2023-09-18T07:38:06;10.52;;;3.55;;
46411;SDS011;32113;42.012;24.870;2023-09-18T07:40:32;8.70;;;2.83;;
46411;SDS011;32113;42.012;24.870;2023-09-18T07:42:58;9.05;;;3.47;;
46411;SDS011;32113;42.012;24.870;2023-09-18T07:45:23;6.20;;;3.30;;
46411;SDS011;32113;42.012;24.870;2023-09-18T07:47:49;6.13;;;3.30;;
46411;SDS011;32113;42.012;24.870;2023-09-18T07:50:14;5.63;;;2.92;;
46411;SDS011;32113;42.012;24.870;2023-09-18T07:52:40;12.57;;;3.15;;
46411;SDS011;32113;42.012;24.870;2023-09-18T07:55:05;6.25;;;2.80;;
46411;SDS011;32113;42.012;24.870;2023-09-18T07:57:31;6.70;;;2.88;;
46411;SDS011;32113;42.012;24.870;2023-09-18T08:02:27;5.97;;;2.90;;
46411;SDS011;32113;42.012;24.870;2023-09-18T08:04:54;7.43;;;3.35;;
46411;SDS011;32113;42.012;24.870;2023-09-18T08:07:19;5.15;;;3.00;;
46411;SDS011;32113;42.012;24.870;2023-09-18T08:09:44;5.20;;;2.60;;
46411;SDS011;32113;42.012;24.870;2023-09-18T08:12:12;11.30;;;2.72;;
46411;SDS011;32113;42.012;24.870;2023-09-18T08:14:38;5.38;;;2.75;;
46411;SDS011;32113;42.012;24.870;2023-09-18T08:17:04;7.72;;;2.53;;
46411;SDS011;32113;42.012;24.870;2023-09-18T08:19:29;5.93;;;2.88;;
46411;SDS011;32113;42.012;24.870;2023-09-18T08:21:57;6.28;;;3.00;;
46411;SDS011;32113;42.012;24.870;2023-09-18T08:24:24;5.40;;;2.65;;
46411;SDS011;32113;42.012;24.870;2023-09-18T08:26:50;6.75;;;2.55;;
46411;SDS011;32113;42.012;24.870;2023-09-18T08:29:16;8.75;;;3.75;;
46411;SDS011;32113;42.012;24.870;2023-09-18T08:31:42;6.00;;;3.05;;
46411;SDS011;32113;42.012;24.870;2023-09-18T08:34:07;6.15;;;2.53;;
46411;SDS011;32113;42.012;24.870;2023-09-18T08:36:33;8.38;;;3.00;;
46411;SDS011;32113;42.012;24.870;2023-09-18T08:38:58;5.25;;;2.55;;
46411;SDS011;32113;42.012;24.870;2023-09-18T08:41:24;7.05;;;2.78;;
46411;SDS011;32113;42.012;24.870;2023-09-18T08:43:55;5.53;;;2.53;;
46411;SDS011;32113;42.012;24.870;2023-09-18T08:46:24;7.65;;;2.72;;
46411;SDS011;32113;42.012;24.870;2023-09-18T08:48:50;6.60;;;2.40;;
46411;SDS011;32113;42.012;24.870;2023-09-18T08:51:16;4.60;;;2.25;;
46411;SDS011;32113;42.012;24.870;2023-09-18T08:53:44;5.20;;;2.20;;
46411;SDS011;32113;42.012;24.870;2023-09-18T08:56:10;9.18;;;2.80;;
46411;SDS011;32113;42.012;24.870;2023-09-18T08:58:38;9.43;;;2.63;;
46411;SDS011;32113;42.012;24.870;2023-09-18T09:01:07;5.63;;;2.65;;
46411;SDS011;32113;42.012;24.870;2023-09-18T09:06:07;4.63;;;2.20;;
46411;SDS011;32113;42.012;24.870;2023-09-18T09:08:34;4.03;;;2.40;;
46411;SDS011;32113;42.012;24.870;2023-09-18T09:11:00;4.63;;;2.45;;
46411;SDS011;32113;42.012;24.870;2023-09-18T09:13:26;7.20;;;2.20;;
46411;SDS011;32113;42.012;24.870;2023-09-18T09:15:53;7.70;;;3.03;;
46411;SDS011;32113;42.012;24.870;2023-09-18T09:18:21;3.83;;;2.40;;
46411;SDS011;32113;42.012;24.870;2023-09-18T09:21:00;5.13;;;2.50;;
46411;SDS011;32113;42.012;24.870;2023-09-18T09:23:44;6.38;;;2.50;;
46411;SDS011;32113;42.012;24.870;2023-09-18T09:26:19;5.93;;;2.10;;
46411;SDS011;32113;42.012;24.870;2023-09-18T09:28:46;5.30;;;2.45;;
46411;SDS011;32113;42.012;24.870;2023-09-18T09:31:23;6.18;;;2.72;;
46411;SDS011;32113;42.012;24.870;2023-09-18T09:33:53;4.72;;;2.30;;
46411;SDS011;32113;42.012;24.870;2023-09-18T09:36:19;6.00;;;2.55;;
46411;SDS011;32113;42.012;24.870;2023-09-18T09:38:45;9.90;;;2.83;;
46411;SDS011;32113;42.012;24.870;2023-09-18T09:41:14;6.32;;;2.78;;
46411;SDS011;32113;42.012;24.870;2023-09-18T09:43:41;5.18;;;2.67;;
46411;SDS011;32113;42.012;24.870;2023-09-18T09:46:07;4.50;;;2.38;;
46411;SDS011;32113;42.012;24.870;2023-09-18T09:51:31;4.35;;;2.10;;
46411;SDS011;32113;42.012;24.870;2023-09-18T09:53:58;5.78;;;2.35;;
46411;SDS011;32113;42.012;24.870;2023-09-18T09:59:06;6.93;;;3.10;;
46411;SDS011;32113;42.012;24.870;2023-09-18T10:01:33;4.93;;;2.28;;
46411;SDS011;32113;42.012;24.870;2023-09-18T10:03:59;8.20;;;2.47;;
46411;SDS011;32113;42.012;24.870;2023-09-18T10:06:30;5.78;;;2.28;;
46411;SDS011;32113;42.012;24.870;2023-09-18T10:08:59;5.05;;;2.50;;
46411;SDS011;32113;42.012;24.870;2023-09-18T10:11:26;6.50;;;2.25;;
46411;SDS011;32113;42.012;24.870;2023-09-18T10:16:21;5.65;;;2.53;;
46411;SDS011;32113;42.012;24.870;2023-09-18T10:21:57;3.88;;;2.30;;
46411;SDS011;32113;42.012;24.870;2023-09-18T10:24:41;4.82;;;2.50;;
46411;SDS011;32113;42.012;24.870;2023-09-18T10:27:12;4.47;;;2.30;;
46411;SDS011;32113;42.012;24.870;2023-09-18T10:29:39;6.43;;;2.40;;
46411;SDS011;32113;42.012;24.870;2023-09-18T10:32:06;7.32;;;2.72;;
46411;SDS011;32113;42.012;24.870;2023-09-18T10:34:33;4.93;;;2.42;;
46411;SDS011;32113;42.012;24.870;2023-09-18T10:37:00;3.85;;;2.33;;
46411;SDS011;32113;42.012;24.870;2023-09-18T10:39:36;5.22;;;2.10;;
46411;SDS011;32113;42.012;24.870;2023-09-18T10:42:04;6.05;;;2.10;;
46411;SDS011;32113;42.012;24.870;2023-09-18T10:44:32;5.03;;;2.58;;
46411;SDS011;32113;42.012;24.870;2023-09-18T10:46:58;8.02;;;3.03;;
46411;SDS011;32113;42.012;24.870;2023-09-18T10:49:26;8.05;;;3.08;;
46411;SDS011;32113;42.012;24.870;2023-09-18T10:51:55;9.13;;;2.72;;
46411;SDS011;32113;42.012;24.870;2023-09-18T10:54:22;4.88;;;2.40;;
46411;SDS011;32113;42.012;24.870;2023-09-18T10:56:49;3.78;;;2.55;;
46411;SDS011;32113;42.012;24.870;2023-09-18T10:59:15;6.18;;;2.50;;
46411;SDS011;32113;42.012;24.870;2023-09-18T11:01:42;9.13;;;2.83;;
46411;SDS011;32113;42.012;24.870;2023-09-18T11:04:08;5.88;;;2.40;;
46411;SDS011;32113;42.012;24.870;2023-09-18T11:09:28;5.53;;;2.47;;
46411;SDS011;32113;42.012;24.870;2023-09-18T11:14:23;4.30;;;2.90;;
46411;SDS011;32113;42.012;24.870;2023-09-18T11:17:05;13.30;;;2.92;;
46411;SDS011;32113;42.012;24.870;2023-09-18T11:19:31;4.10;;;2.00;;
46411;SDS011;32113;42.012;24.870;2023-09-18T11:22:06;3.85;;;2.40;;
46411;SDS011;32113;42.012;24.870;2023-09-18T11:24:35;4.10;;;2.17;;
46411;SDS011;32113;42.012;24.870;2023-09-18T11:27:01;4.80;;;2.63;;
46411;SDS011;32113;42.012;24.870;2023-09-18T11:29:26;6.10;;;2.38;;
46411;SDS011;32113;42.012;24.870;2023-09-18T11:31:54;3.63;;;2.28;;
46411;SDS011;32113;42.012;24.870;2023-09-18T11:34:24;5.38;;;2.63;;
46411;SDS011;32113;42.012;24.870;2023-09-18T11:36:53;6.15;;;2.38;;
46411;SDS011;32113;42.012;24.870;2023-09-18T11:39:38;6.03;;;2.90;;
46411;SDS011;32113;42.012;24.870;2023-09-18T11:42:12;4.57;;;2.33;;
46411;SDS011;32113;42.012;24.870;2023-09-18T11:44:41;5.00;;;2.70;;
46411;SDS011;32113;42.012;24.870;2023-09-18T11:47:07;4.15;;;2.17;;
46411;SDS011;32113;42.012;24.870;2023-09-18T11:49:37;6.28;;;2.22;;
46411;SDS011;32113;42.012;24.870;2023-09-18T11:52:06;4.40;;;1.75;;
46411;SDS011;32113;42.012;24.870;2023-09-18T11:54:32;3.78;;;2.10;;
46411;SDS011;32113;42.012;24.870;2023-09-18T11:57:02;4.22;;;2.13;;
46411;SDS011;32113;42.012;24.870;2023-09-18T11:59:39;3.25;;;2.17;;
46411;SDS011;32113;42.012;24.870;2023-09-18T12:02:10;4.22;;;2.08;;
46411;SDS011;32113;42.012;24.870;2023-09-18T12:04:40;8.02;;;2.50;;
46411;SDS011;32113;42.012;24.870;2023-09-18T12:07:06;5.05;;;2.33;;
46411;SDS011;32113;42.012;24.870;2023-09-18T12:09:35;8.50;;;2.20;;
46411;SDS011;32113;42.012;24.870;2023-09-18T12:12:00;3.70;;;2.25;;
46411;SDS011;32113;42.012;24.870;2023-09-18T12:14:30;6.05;;;2.15;;
46411;SDS011;32113;42.012;24.870;2023-09-18T12:19:23;4.80;;;2.40;;
46411;SDS011;32113;42.012;24.870;2023-09-18T12:21:50;5.95;;;2.20;;
46411;SDS011;32113;42.012;24.870;2023-09-18T12:24:22;6.55;;;2.20;;
46411;SDS011;32113;42.012;24.870;2023-09-18T12:26:51;7.78;;;2.30;;
46411;SDS011;32113;42.012;24.870;2023-09-18T12:29:17;4.65;;;2.50;;
46411;SDS011;32113;42.012;24.870;2023-09-18T12:31:43;5.57;;;2.23;;
46411;SDS011;32113;42.012;24.870;2023-09-18T12:34:17;5.45;;;2.35;;
46411;SDS011;32113;42.012;24.870;2023-09-18T12:36:43;3.25;;;2.10;;
46411;SDS011;32113;42.012;24.870;2023-09-18T12:39:12;3.92;;;2.08;;
46411;SDS011;32113;42.012;24.870;2023-09-18T12:41:41;4.13;;;2.28;;
46411;SDS011;32113;42.012;24.870;2023-09-18T12:44:08;4.78;;;2.47;;
46411;SDS011;32113;42.012;24.870;2023-09-18T12:49:14;4.90;;;2.10;;
46411;SDS011;32113;42.012;24.870;2023-09-18T12:51:40;3.45;;;2.00;;
46411;SDS011;32113;42.012;24.870;2023-09-18T12:54:06;5.72;;;2.30;;
46411;SDS011;32113;42.012;24.870;2023-09-18T12:56:31;3.28;;;1.60;;
46411;SDS011;32113;42.012;24.870;2023-09-18T12:58:57;5.07;;;2.13;;
46411;SDS011;32113;42.012;24.870;2023-09-18T13:01:28;2.85;;;1.90;;
46411;SDS011;32113;42.012;24.870;2023-09-18T13:03:54;5.25;;;2.40;;
46411;SDS011;32113;42.012;24.870;2023-09-18T13:06:22;4.00;;;1.88;;
46411;SDS011;32113;42.012;24.870;2023-09-18T13:08:49;5.25;;;2.75;;
46411;SDS011;32113;42.012;24.870;2023-09-18T13:11:18;3.55;;;2.25;;
46411;SDS011;32113;42.012;24.870;2023-09-18T13:13:43;4.70;;;2.13;;
46411;SDS011;32113;42.012;24.870;2023-09-18T13:16:09;3.83;;;2.47;;
46411;SDS011;32113;42.012;24.870;2023-09-18T13:18:35;4.30;;;2.15;;
46411;SDS011;32113;42.012;24.870;2023-09-18T13:21:11;5.38;;;2.63;;
46411;SDS011;32113;42.012;24.870;2023-09-18T13:23:37;3.42;;;2.10;;
46411;SDS011;32113;42.012;24.870;2023-09-18T13:26:04;4.18;;;1.92;;
46411;SDS011;32113;42.012;24.870;2023-09-18T13:28:30;3.90;;;2.50;;
46411;SDS011;32113;42.012;24.870;2023-09-18T13:33:24;4.65;;;2.45;;
46411;SDS011;32113;42.012;24.870;2023-09-18T13:35:51;8.50;;;2.78;;
46411;SDS011;32113;42.012;24.870;2023-09-18T13:38:18;3.03;;;2.42;;
46411;SDS011;32113;42.012;24.870;2023-09-18T13:40:45;4.72;;;2.60;;
46411;SDS011;32113;42.012;24.870;2023-09-18T13:43:12;5.10;;;3.13;;
46411;SDS011;32113;42.012;24.870;2023-09-18T13:45:40;5.63;;;2.88;;
46411;SDS011;32113;42.012;24.870;2023-09-18T13:48:07;3.65;;;2.72;;
46411;SDS011;32113;42.012;24.870;2023-09-18T13:50:33;5.95;;;2.67;;
46411;SDS011;32113;42.012;24.870;2023-09-18T13:52:59;4.97;;;3.13;;
46411;SDS011;32113;42.012;24.870;2023-09-18T13:55:26;4.63;;;2.80;;
46411;SDS011;32113;42.012;24.870;2023-09-18T13:57:51;6.82;;;2.85;;
46411;SDS011;32113;42.012;24.870;2023-09-18T14:00:16;5.45;;;3.08;;
46411;SDS011;32113;42.012;24.870;2023-09-18T14:02:42;3.70;;;2.40;;
46411;SDS011;32113;42.012;24.870;2023-09-18T14:05:08;4.10;;;3.20;;
46411;SDS011;32113;42.012;24.870;2023-09-18T14:07:34;5.43;;;3.33;;
46411;SDS011;32113;42.012;24.870;2023-09-18T14:10:00;5.30;;;3.28;;
46411;SDS011;32113;42.012;24.870;2023-09-18T14:12:28;5.03;;;3.20;;
46411;SDS011;32113;42.012;24.870;2023-09-18T14:14:57;10.43;;;3.90;;
46411;SDS011;32113;42.012;24.870;2023-09-18T14:17:22;9.63;;;3.42;;
46411;SDS011;32113;42.012;24.870;2023-09-18T14:19:48;3.50;;;3.05;;
46411;SDS011;32113;42.012;24.870;2023-09-18T14:22:13;6.53;;;3.67;;
46411;SDS011;32113;42.012;24.870;2023-09-18T14:24:39;8.18;;;3.30;;
46411;SDS011;32113;42.012;24.870;2023-09-18T14:27:05;5.43;;;3.80;;
46411;SDS011;32113;42.012;24.870;2023-09-18T14:32:01;5.57;;;3.22;;
46411;SDS011;32113;42.012;24.870;2023-09-18T14:34:28;3.70;;;3.05;;
46411;SDS011;32113;42.012;24.870;2023-09-18T14:36:55;4.05;;;3.10;;
46411;SDS011;32113;42.012;24.870;2023-09-18T14:39:20;8.63;;;3.60;;
46411;SDS011;32113;42.012;24.870;2023-09-18T14:41:46;7.40;;;3.70;;
46411;SDS011;32113;42.012;24.870;2023-09-18T14:44:13;7.93;;;3.47;;
46411;SDS011;32113;42.012;24.870;2023-09-18T14:46:38;5.25;;;3.05;;
46411;SDS011;32113;42.012;24.870;2023-09-18T14:49:04;4.93;;;3.50;;
46411;SDS011;32113;42.012;24.870;2023-09-18T14:51:32;4.93;;;3.75;;
46411;SDS011;32113;42.012;24.870;2023-09-18T14:53:58;5.80;;;3.60;;
46411;SDS011;32113;42.012;24.870;2023-09-18T14:56:24;5.80;;;3.60;;
46411;SDS011;32113;42.012;24.870;2023-09-18T14:58:49;8.48;;;3.75;;
46411;SDS011;32113;42.012;24.870;2023-09-18T15:01:17;11.25;;;3.58;;
46411;SDS011;32113;42.012;24.870;2023-09-18T15:03:46;5.30;;;3.47;;
46411;SDS011;32113;42.012;24.870;2023-09-18T15:06:11;8.70;;;3.47;;